Gillette, Wyoming
Current Conditions -  °F | °C
As of 10:53 PM on Monday 20 Oct 2014 (Local Time) from KGCC Reporting Station
Clear Clear  
Wind Chill: 59°   Ceiling: Unl
Heat Index: 59°   Visibility: 10mi
Dew Point: 32°   Wind: 15mph
Humidity: 36%   Direction: 190°S
Pressure: 29.88"   Gusts: NA
Location:  44.29°N, 105.5°W
Report Text: KGCC 210453Z AUTO 19013KT 10SM CLR 15/00 A2988 RMK AO2 SLP084 T01500000 $
Loading
Personal Weather Stations






























Interactive Weather Map New forecast layout! Learn more

10-Day Weather Forecast

Advertisements
Track Severe Weather on mobile